Flight Sim Network - SBCF Airport Info

    SBCF (Tancredo Neves International Airport)  Login to use Map Selector
   

  ALLIANCE AIRCRAFT AT THIS AIRPORT
Tail Number Aircraft ModelFlightsRunwayRangeCapacityPaxSale
PT-ASBBombardier Dash-8 Q400 04675ft2693nm11455Kg76Yes
  RUNWAY INFORMATION    |    Airport Elevation : 2715ft    |    LAT : -19.6244430541992  /  LON : -43.9719429016113
Runway Number 16 / 34 Runway Width 148' Runway Length 9843'
Lighted Runway No Runway StatusOpen Runway Surface Asphalt
  CLOSE ALTERNATE AIRPORTS
ICAODistanceAirport NameLongest RWRW SurfaceMAP
SBLS5NMLagoa Santa Airport6037FTAsphalt
SBBH14NMPampulha - Carlos Drummond de Andrade Airport8333FTAsphalt
SNCH17NMCarlos Prates3035FTAsphalt
SNPA38NMPara De Minas3740FTAsphalt
SNKD47NMConceição do Mato Dentro Airport3150FTAsphalt
SNQV59NMCurvelo Airport3937FTAsphalt
SNDV61NMDivinopolis5052FTAsphalt
SNPO65NMPompeu Airport3937FTGrass
SNKF68NMConselheiro Lafaiete Airport3150FTDirt
SNSO68NMSerro Airport3018FTAsphalt
  AIRPORT WEATHER
78°F | 26°C
Temperature
31%
Humidity
30" | 0mb
Pressure
6sm
Visibility
VFR
Flight Rules
CAVOK
Initial Clouds
FAIR
Conditions
Wind Info
7/23/24 17:00Z
Updated

SBCF 231700Z 05008KT CAVOK 26/08 Q1024
  AIRPORT FREQUENCIES
NameFrequency
ATIS127.850
CLEARANCE121.000
GROUND121.900
TOWER118.200
APPROACH120.200
DEPARTURE129.400
ICF (RWY 16)109.700

Powered by Virtual Airlines Manager